createdAt,value
2018-12-09T00:02:11.629Z,22.50
2018-12-09T00:04:39.168Z,18.43
2018-12-09T00:07:08.199Z,20.20
2018-12-09T00:09:36.841Z,16.80
2018-12-09T00:12:04.633Z,28.40
2018-12-09T00:14:32.789Z,18.07
2018-12-09T00:17:00.335Z,19.40
2018-12-09T00:19:28.181Z,21.50
2018-12-09T00:21:55.688Z,26.93
2018-12-09T00:24:24.085Z,18.03
2018-12-09T00:26:51.617Z,21.57
2018-12-09T00:29:19.740Z,19.30
2018-12-09T00:31:47.199Z,22.30
2018-12-09T00:34:14.766Z,15.97
2018-12-09T00:36:43.017Z,22.63
2018-12-09T00:39:11.025Z,19.13
2018-12-09T00:41:38.511Z,14.47
2018-12-09T00:44:06.066Z,17.13
2018-12-09T00:46:35.036Z,22.93
2018-12-09T00:49:06.890Z,19.00
2018-12-09T00:51:34.359Z,13.13
2018-12-09T00:54:02.546Z,15.40
2018-12-09T00:56:31.128Z,16.57
2018-12-09T00:58:59.956Z,24.20
2018-12-09T01:01:27.406Z,20.30
2018-12-09T01:03:55.678Z,20.03
2018-12-09T01:06:23.600Z,14.77
2018-12-09T01:08:51.290Z,14.27
2018-12-09T01:11:18.771Z,15.30
2018-12-09T01:13:46.428Z,16.07
2018-12-09T01:16:14.820Z,13.33
2018-12-09T01:18:43.253Z,21.30
2018-12-09T01:21:10.794Z,18.07
2018-12-09T01:23:38.372Z,15.77
2018-12-09T01:26:06.017Z,15.47
2018-12-09T01:28:33.712Z,18.13
2018-12-09T01:31:01.496Z,18.10
2018-12-09T01:33:29.154Z,12.20
2018-12-09T01:35:56.575Z,18.27
2018-12-09T01:38:24.129Z,14.17
2018-12-09T01:40:54.540Z,22.13
2018-12-09T01:43:26.554Z,17.57
2018-12-09T01:45:54.194Z,16.17
2018-12-09T01:48:22.605Z,17.87
2018-12-09T01:50:50.216Z,18.47
2018-12-09T01:53:23.793Z,13.97
2018-12-09T01:55:51.290Z,17.67
2018-12-09T01:58:18.800Z,20.67
2018-12-09T02:00:47.313Z,15.43
2018-12-09T02:03:14.888Z,17.57
2018-12-09T02:05:42.413Z,14.63
2018-12-09T02:08:09.962Z,16.93
2018-12-09T02:10:37.491Z,10.47
2018-12-09T02:13:06.095Z,14.63
2018-12-09T02:15:34.065Z,17.20
2018-12-09T02:18:02.715Z,13.93
2018-12-09T02:20:30.127Z,13.67
2018-12-09T02:22:57.675Z,18.37
2018-12-09T02:25:26.227Z,15.20
2018-12-09T02:27:53.748Z,18.43
2018-12-09T02:30:21.200Z,19.30
2018-12-09T02:32:48.659Z,15.97
2018-12-09T02:35:16.302Z,17.13
2018-12-09T02:37:44.395Z,18.27
2018-12-09T02:40:11.921Z,14.87
2018-12-09T02:42:40.137Z,20.07
2018-12-09T02:45:07.669Z,16.20
2018-12-09T02:47:35.233Z,17.43
2018-12-09T02:52:56.308Z,22.53
2018-12-09T02:55:23.857Z,17.90
2018-12-09T02:57:51.269Z,18.40
2018-12-09T03:00:18.872Z,15.43
2018-12-09T03:02:46.517Z,17.43
2018-12-09T03:05:14.658Z,21.80
2018-12-09T03:07:42.545Z,24.20
2018-12-09T03:10:10.380Z,20.67
2018-12-09T03:12:37.992Z,21.67
2018-12-09T03:15:05.479Z,18.43
2018-12-09T03:17:33.986Z,19.50
2018-12-09T03:20:02.809Z,17.47
2018-12-09T03:22:31.372Z,27.67
2018-12-09T03:25:00.255Z,20.43
2018-12-09T03:27:27.750Z,17.63
2018-12-09T03:29:55.382Z,21.43
2018-12-09T03:32:23.627Z,20.37
2018-12-09T03:34:51.533Z,21.50
2018-12-09T03:37:20.125Z,19.80
2018-12-09T03:39:47.602Z,21.00
2018-12-09T03:42:15.212Z,17.53
2018-12-09T03:44:42.672Z,22.23
2018-12-09T03:47:10.119Z,15.00
2018-12-09T03:49:37.881Z,24.90
2018-12-09T03:52:06.511Z,18.27
2018-12-09T03:54:34.195Z,21.63
2018-12-09T03:57:03.752Z,17.77
2018-12-09T03:59:31.564Z,16.40
2018-12-09T04:01:59.259Z,17.67
2018-12-09T04:04:26.755Z,14.83
2018-12-09T04:06:54.220Z,15.77
2018-12-09T04:09:21.813Z,17.37
2018-12-09T04:11:49.469Z,21.57
2018-12-09T04:14:17.713Z,22.30
2018-12-09T04:16:46.426Z,22.10
2018-12-09T04:19:15.110Z,11.73
2018-12-09T04:21:43.249Z,17.30
2018-12-09T04:24:11.397Z,22.47
2018-12-09T04:26:39.001Z,18.67
2018-12-09T04:29:06.670Z,25.00
2018-12-09T04:31:34.504Z,22.30
2018-12-09T04:34:02.044Z,20.07
2018-12-09T04:36:29.702Z,14.07
2018-12-09T04:38:57.241Z,17.73
2018-12-09T04:41:24.771Z,17.77
2018-12-09T04:43:53.193Z,18.33
2018-12-09T04:46:20.718Z,15.17
2018-12-09T04:48:48.170Z,20.77
2018-12-09T04:51:16.087Z,16.00
2018-12-09T04:53:43.712Z,19.80
2018-12-09T04:56:13.297Z,20.43
2018-12-09T04:58:46.635Z,18.03
2018-12-09T05:01:14.869Z,17.10
2018-12-09T05:03:42.583Z,17.20
2018-12-09T05:06:10.549Z,15.80
2018-12-09T05:08:40.132Z,17.47
2018-12-09T05:11:07.711Z,15.47
2018-12-09T05:13:35.419Z,18.93
2018-12-09T05:16:03.468Z,15.40
2018-12-09T05:18:31.927Z,16.70
2018-12-09T05:20:59.553Z,19.47
2018-12-09T05:23:27.709Z,19.97
2018-12-09T05:25:55.171Z,19.33
2018-12-09T05:28:22.747Z,16.10
2018-12-09T05:30:51.058Z,16.93
2018-12-09T05:33:18.601Z,18.00
2018-12-09T05:35:46.127Z,17.83
2018-12-09T05:38:13.818Z,21.30
2018-12-09T05:40:41.763Z,20.00
2018-12-09T05:43:09.791Z,28.03
2018-12-09T05:45:37.925Z,19.73
2018-12-09T05:48:05.455Z,22.47
2018-12-09T05:50:34.061Z,19.17
2018-12-09T05:53:01.635Z,21.40
2018-12-09T05:55:30.888Z,18.63
2018-12-09T05:57:59.219Z,14.03
2018-12-09T06:00:27.825Z,16.87
2018-12-09T06:02:56.220Z,17.87
2018-12-09T06:05:24.093Z,17.10
2018-12-09T06:07:52.084Z,14.10
2018-12-09T06:10:19.685Z,17.60
2018-12-09T06:12:47.315Z,22.83
2018-12-09T06:15:14.842Z,18.40
2018-12-09T06:17:46.298Z,15.83
2018-12-09T06:20:13.722Z,19.60
2018-12-09T06:22:42.358Z,20.40
2018-12-09T06:25:09.983Z,16.77
2018-12-09T06:27:37.529Z,18.53
2018-12-09T06:30:07.064Z,18.17
2018-12-09T06:32:34.550Z,16.63
2018-12-09T06:35:02.157Z,15.00
2018-12-09T06:37:35.934Z,22.03
2018-12-09T06:40:07.733Z,19.97
2018-12-09T06:42:35.607Z,21.57
2018-12-09T06:45:03.239Z,19.23
2018-12-09T06:47:30.873Z,18.17
2018-12-09T06:49:58.492Z,14.50
2018-12-09T06:52:26.058Z,22.87
2018-12-09T06:54:56.161Z,18.33
2018-12-09T06:57:24.091Z,17.63
2018-12-09T06:59:51.775Z,18.77
2018-12-09T07:02:20.591Z,18.10
2018-12-09T07:04:49.511Z,18.23
2018-12-09T07:07:17.783Z,21.07
2018-12-09T07:09:45.998Z,19.77
2018-12-09T07:12:14.306Z,25.23
2018-12-09T07:14:41.903Z,19.83
2018-12-09T07:17:09.501Z,15.90
2018-12-09T07:19:36.954Z,20.67
2018-12-09T07:22:04.482Z,22.97
2018-12-09T07:24:31.902Z,18.77
2018-12-09T07:26:59.425Z,25.07
2018-12-09T07:29:27.072Z,22.07
2018-12-09T07:31:54.574Z,21.33
2018-12-09T07:34:22.253Z,21.67
2018-12-09T07:36:50.103Z,24.07
2018-12-09T07:39:17.594Z,24.33
2018-12-09T07:41:45.154Z,28.03
2018-12-09T07:44:13.066Z,18.73
2018-12-09T07:46:40.826Z,19.20
2018-12-09T07:49:08.397Z,18.83
2018-12-09T07:51:35.896Z,22.27
2018-12-09T07:54:03.532Z,18.13
2018-12-09T07:56:30.986Z,18.57
2018-12-09T07:58:58.533Z,13.30
2018-12-09T08:01:26.215Z,15.37
2018-12-09T08:03:53.685Z,18.83
2018-12-09T08:06:21.769Z,14.33
2018-12-09T08:08:49.868Z,12.60
2018-12-09T08:11:17.583Z,17.00
2018-12-09T08:13:46.096Z,18.53
2018-12-09T08:16:13.731Z,13.63
2018-12-09T08:18:42.343Z,14.07
2018-12-09T08:21:09.887Z,19.40
2018-12-09T08:23:38.031Z,14.07
2018-12-09T08:26:05.581Z,15.77
2018-12-09T08:28:33.314Z,17.47
2018-12-09T08:31:01.817Z,17.07
2018-12-09T08:33:29.977Z,17.30
2018-12-09T08:35:57.579Z,11.40
2018-12-09T08:38:25.248Z,14.20
2018-12-09T08:40:53.603Z,15.33
2018-12-09T08:43:21.197Z,28.60
2018-12-09T08:45:48.850Z,15.73
2018-12-09T08:48:17.266Z,16.43
2018-12-09T08:50:45.809Z,14.80
2018-12-09T08:53:14.169Z,13.20
2018-12-09T08:55:42.840Z,12.43
2018-12-09T08:58:10.366Z,10.93
2018-12-09T09:00:37.933Z,16.23
2018-12-09T09:03:09.550Z,16.50
2018-12-09T09:05:37.692Z,15.60
2018-12-09T09:08:05.184Z,13.17
2018-12-09T09:10:32.627Z,19.97
2018-12-09T09:13:00.141Z,14.70
2018-12-09T09:15:27.644Z,15.00
2018-12-09T09:17:55.183Z,14.17
2018-12-09T09:20:22.644Z,14.27
2018-12-09T09:22:50.065Z,12.30
2018-12-09T09:25:17.548Z,19.43
2018-12-09T09:27:45.038Z,16.10
2018-12-09T09:30:12.905Z,14.07
2018-12-09T09:32:40.457Z,11.20
2018-12-09T09:35:08.058Z,11.03
2018-12-09T09:37:35.517Z,18.70
2018-12-09T09:40:03.332Z,15.00
2018-12-09T09:42:31.377Z,13.70
2018-12-09T09:45:00.871Z,11.90
2018-12-09T09:47:28.406Z,11.53
2018-12-09T09:49:56.278Z,10.67
2018-12-09T09:52:24.095Z,13.97
2018-12-09T09:54:51.562Z,8.90
2018-12-09T09:57:19.131Z,14.17
2018-12-09T09:59:47.689Z,8.97
2018-12-09T10:02:16.827Z,14.47
2018-12-09T10:04:44.449Z,13.27
2018-12-09T10:07:16.267Z,14.33
2018-12-09T10:09:44.406Z,18.73
2018-12-09T10:12:12.023Z,15.13
2018-12-09T10:14:39.599Z,13.47
2018-12-09T10:17:07.218Z,14.17
2018-12-09T10:19:35.480Z,17.27
2018-12-09T10:22:05.733Z,10.83
2018-12-09T10:24:37.683Z,10.67
2018-12-09T10:27:05.229Z,11.03
2018-12-09T10:29:32.765Z,12.23
2018-12-09T10:32:01.404Z,12.23
2018-12-09T10:34:29.778Z,6.77
2018-12-09T10:36:58.473Z,7.63
2018-12-09T10:39:27.499Z,9.40
2018-12-09T10:41:55.135Z,10.33
2018-12-09T10:44:22.682Z,8.93
2018-12-09T10:46:55.942Z,3.90
2018-12-09T10:49:23.590Z,5.87
2018-12-09T10:51:51.220Z,3.93
2018-12-09T10:54:19.867Z,2.97
2018-12-09T10:56:48.046Z,4.00
2018-12-09T10:59:16.374Z,6.60
2018-12-09T11:01:50.337Z,4.13
2018-12-09T11:04:18.716Z,8.70
2018-12-09T11:06:47.801Z,10.43
2018-12-09T11:09:15.433Z,13.10
2018-12-09T11:11:43.158Z,8.60
2018-12-09T11:14:12.921Z,12.10
2018-12-09T11:16:40.800Z,7.00
2018-12-09T11:19:08.778Z,13.57
2018-12-09T11:21:36.612Z,10.77
2018-12-09T11:24:04.390Z,10.57
2018-12-09T11:26:31.955Z,11.20
2018-12-09T11:29:01.162Z,12.37
2018-12-09T11:31:28.969Z,10.10
2018-12-09T11:33:58.380Z,9.73
2018-12-09T11:36:26.264Z,10.70
2018-12-09T11:38:54.154Z,7.20
2018-12-09T11:41:21.927Z,10.70
2018-12-09T11:43:50.621Z,5.83
2018-12-09T11:46:19.560Z,5.27
2018-12-09T11:48:47.890Z,6.50
2018-12-09T11:51:16.352Z,6.77
2018-12-09T11:53:45.117Z,6.27
2018-12-09T11:56:13.447Z,6.93
2018-12-09T11:58:40.899Z,6.47
2018-12-09T12:01:08.945Z,9.97
2018-12-09T12:03:36.926Z,12.17
2018-12-09T12:06:04.563Z,10.50
2018-12-09T12:08:32.937Z,8.40
2018-12-09T12:11:02.153Z,8.80
2018-12-09T12:13:29.695Z,6.13
2018-12-09T12:15:57.561Z,6.90
2018-12-09T12:18:25.282Z,9.77
2018-12-09T12:20:53.221Z,8.67
2018-12-09T12:23:20.858Z,6.37
2018-12-09T12:25:49.055Z,6.87
2018-12-09T12:28:17.206Z,5.47
2018-12-09T12:30:45.064Z,7.90
2018-12-09T12:33:12.714Z,9.47
2018-12-09T12:35:40.605Z,11.87
2018-12-09T12:38:08.326Z,10.77
2018-12-09T12:40:36.380Z,9.63
2018-12-09T12:43:04.132Z,7.17
2018-12-09T12:45:31.958Z,9.00
2018-12-09T12:47:59.531Z,8.70
2018-12-09T12:50:27.026Z,12.87
2018-12-09T12:52:55.559Z,9.03
2018-12-09T12:55:23.345Z,10.73
2018-12-09T12:57:51.390Z,16.37
2018-12-09T13:00:20.395Z,9.67
2018-12-09T13:02:48.694Z,9.83
2018-12-09T13:05:16.384Z,10.10
2018-12-09T13:07:44.241Z,11.20
2018-12-09T13:10:12.028Z,15.47
2018-12-09T13:12:39.958Z,10.20
2018-12-09T13:15:08.194Z,13.40
2018-12-09T13:17:35.811Z,8.87
2018-12-09T13:20:07.467Z,7.67
2018-12-09T13:22:35.778Z,5.50
2018-12-09T13:25:03.498Z,7.67
2018-12-09T13:27:31.025Z,9.70
2018-12-09T13:29:58.664Z,9.77
2018-12-09T13:32:26.186Z,9.80
2018-12-09T13:34:53.627Z,9.53
2018-12-09T13:37:21.142Z,15.13
2018-12-09T13:39:48.974Z,17.83
2018-12-09T13:42:16.528Z,12.97
2018-12-09T13:44:44.720Z,20.97
2018-12-09T13:47:13.962Z,15.13
2018-12-09T13:49:42.332Z,17.73
2018-12-09T13:52:09.955Z,11.57
2018-12-09T13:54:39.039Z,20.37
2018-12-09T13:57:06.758Z,21.80
2018-12-09T13:59:34.543Z,21.87
2018-12-09T14:02:03.331Z,21.70
2018-12-09T14:04:30.991Z,17.57
2018-12-09T14:06:59.847Z,21.53
2018-12-09T14:09:27.481Z,16.97
2018-12-09T14:11:55.028Z,18.47
2018-12-09T14:14:23.625Z,22.77
2018-12-09T14:16:56.654Z,21.47
2018-12-09T14:19:24.704Z,19.87
2018-12-09T14:21:52.346Z,13.53
2018-12-09T14:24:20.739Z,16.57
2018-12-09T14:26:49.423Z,11.13
2018-12-09T14:29:17.124Z,20.23
2018-12-09T14:31:45.530Z,17.33
2018-12-09T14:34:13.160Z,14.93
2018-12-09T14:36:42.147Z,17.93
2018-12-09T14:39:09.642Z,19.50
2018-12-09T14:41:37.631Z,18.23
2018-12-09T14:44:06.944Z,21.27
2018-12-09T14:46:34.728Z,20.03
2018-12-09T14:49:02.333Z,20.47
2018-12-09T14:51:30.165Z,19.20
2018-12-09T14:53:58.557Z,23.10
2018-12-09T14:56:26.170Z,16.57
2018-12-09T14:58:53.661Z,19.67
2018-12-09T15:01:21.187Z,15.43
2018-12-09T15:03:48.647Z,16.63
2018-12-09T15:06:16.366Z,15.27
2018-12-09T15:08:44.050Z,16.27
2018-12-09T15:11:11.732Z,11.17
2018-12-09T15:13:39.400Z,6.10
2018-12-09T15:16:07.035Z,8.13
2018-12-09T15:18:35.642Z,4.97
2018-12-09T15:21:03.168Z,11.43
2018-12-09T15:23:31.237Z,11.83
2018-12-09T15:25:58.884Z,11.10
2018-12-09T15:28:26.435Z,11.50
2018-12-09T15:30:54.136Z,12.53
2018-12-09T15:33:24.202Z,13.33
2018-12-09T15:35:51.946Z,16.93
2018-12-09T15:38:20.805Z,11.93
2018-12-09T15:40:48.966Z,13.57
2018-12-09T15:43:20.882Z,12.03
2018-12-09T15:45:48.892Z,7.50
2018-12-09T15:48:16.753Z,6.97
2018-12-09T15:50:44.766Z,8.97
2018-12-09T15:53:12.540Z,9.20
2018-12-09T15:55:40.714Z,9.53
2018-12-09T15:58:08.241Z,9.00
2018-12-09T16:00:40.030Z,12.47
2018-12-09T16:03:08.391Z,16.03
2018-12-09T16:05:43.380Z,17.93
2018-12-09T16:08:11.256Z,15.37
2018-12-09T16:10:41.976Z,8.77
2018-12-09T16:13:13.831Z,13.77
2018-12-09T16:15:41.431Z,8.20
2018-12-09T16:18:09.398Z,12.13
2018-12-09T16:20:36.998Z,15.73
2018-12-09T16:23:06.307Z,17.53
2018-12-09T16:25:34.798Z,11.03
2018-12-09T16:28:02.517Z,14.07
2018-12-09T16:30:30.376Z,20.53
2018-12-09T16:32:58.031Z,15.77
2018-12-09T16:35:25.954Z,20.53
2018-12-09T16:37:55.490Z,16.47
2018-12-09T16:40:23.051Z,16.43
2018-12-09T16:42:51.055Z,17.67
2018-12-09T16:45:18.593Z,18.23
2018-12-09T16:47:46.758Z,17.20
2018-12-09T16:50:14.735Z,16.80
2018-12-09T16:52:46.965Z,24.67
2018-12-09T16:55:14.649Z,18.07
2018-12-09T16:57:42.203Z,17.47
2018-12-09T17:00:09.762Z,20.60
2018-12-09T17:02:37.400Z,12.43
2018-12-09T17:05:13.136Z,12.47
2018-12-09T17:07:42.301Z,17.93
2018-12-09T17:10:10.262Z,17.90
2018-12-09T17:12:44.002Z,20.10
2018-12-09T17:15:11.629Z,16.33
2018-12-09T17:17:39.159Z,20.57
2018-12-09T17:20:07.156Z,15.53
2018-12-09T17:22:34.737Z,12.87
2018-12-09T17:25:03.919Z,16.80
2018-12-09T17:27:31.712Z,15.60
2018-12-09T17:30:00.229Z,14.67
2018-12-09T17:32:27.908Z,16.90
2018-12-09T17:34:55.441Z,18.50
2018-12-09T17:37:23.101Z,18.83
2018-12-09T17:39:54.701Z,22.00
2018-12-09T17:42:22.425Z,18.17
2018-12-09T17:44:50.021Z,12.23
2018-12-09T17:47:18.551Z,9.40
2018-12-09T17:49:46.093Z,12.40
2018-12-09T17:52:13.779Z,9.67
2018-12-09T17:54:41.561Z,18.47
2018-12-09T17:57:10.229Z,10.40
2018-12-09T17:59:37.689Z,12.83
2018-12-09T18:02:05.235Z,15.70
2018-12-09T18:04:32.748Z,10.83
2018-12-09T18:07:01.047Z,6.80
2018-12-09T18:09:28.745Z,7.20
2018-12-09T18:11:56.404Z,11.83
2018-12-09T18:14:24.061Z,15.67
2018-12-09T18:16:51.627Z,11.80
2018-12-09T18:19:19.286Z,10.80
2018-12-09T18:21:47.411Z,12.77
2018-12-09T18:24:16.614Z,11.57
2018-12-09T18:26:44.212Z,11.37
2018-12-09T18:29:11.736Z,17.27
2018-12-09T18:31:39.330Z,16.63
2018-12-09T18:34:07.075Z,17.57
2018-12-09T18:36:35.086Z,14.87
2018-12-09T18:39:02.862Z,21.07
2018-12-09T18:41:30.575Z,16.03
2018-12-09T18:43:59.302Z,17.33
2018-12-09T18:46:27.052Z,10.43
2018-12-09T18:48:54.769Z,11.77
2018-12-09T18:51:22.246Z,13.03
2018-12-09T18:53:49.814Z,13.40
2018-12-09T18:56:17.592Z,10.13
2018-12-09T18:58:45.733Z,9.23
2018-12-09T19:01:14.347Z,10.63
2018-12-09T19:03:43.868Z,9.20
2018-12-09T19:06:11.990Z,13.77
2018-12-09T19:08:43.870Z,11.27
2018-12-09T19:11:13.476Z,12.77
2018-12-09T19:13:44.833Z,19.50
2018-12-09T19:16:16.743Z,16.50
2018-12-09T19:18:49.160Z,14.33
2018-12-09T19:21:17.615Z,14.53
2018-12-09T19:23:45.447Z,13.27
2018-12-09T19:26:14.112Z,13.37
2018-12-09T19:28:41.661Z,16.27
2018-12-09T19:31:09.203Z,18.17
2018-12-09T19:33:37.413Z,13.23
2018-12-09T19:36:05.011Z,11.87
2018-12-09T19:38:40.057Z,12.27
2018-12-09T19:41:04.497Z,13.80
2018-12-09T19:43:32.102Z,14.37
2018-12-09T19:45:59.838Z,17.93
2018-12-09T19:48:27.512Z,15.57
2018-12-09T19:50:55.154Z,12.13
2018-12-09T19:53:22.705Z,19.20
2018-12-09T19:55:50.227Z,16.73
2018-12-09T19:58:19.322Z,18.87
2018-12-09T20:00:47.593Z,17.17
2018-12-09T20:03:20.218Z,20.03
2018-12-09T20:05:49.004Z,16.63
2018-12-09T20:08:17.537Z,15.17
2018-12-09T20:10:45.220Z,14.40
2018-12-09T20:13:13.010Z,13.70
2018-12-09T20:15:40.739Z,11.10
2018-12-09T20:18:08.872Z,8.63
2018-12-09T20:20:36.575Z,12.40
2018-12-09T20:23:04.175Z,11.87
2018-12-09T20:25:31.693Z,8.27
2018-12-09T20:27:59.559Z,6.70
2018-12-09T20:30:27.436Z,8.00
2018-12-09T20:32:55.033Z,11.07
2018-12-09T20:35:22.590Z,7.87
2018-12-09T20:37:50.080Z,10.63
2018-12-09T20:40:17.646Z,11.67
2018-12-09T20:42:48.224Z,13.37
2018-12-09T20:45:15.507Z,11.60
2018-12-09T20:47:43.869Z,15.43
2018-12-09T20:50:11.468Z,16.90
2018-12-09T20:52:40.060Z,16.30
2018-12-09T20:55:07.970Z,12.90
2018-12-09T20:57:36.270Z,15.07
2018-12-09T21:00:04.458Z,16.70
2018-12-09T21:02:34.269Z,16.37
2018-12-09T21:05:02.647Z,16.70
2018-12-09T21:07:30.904Z,17.77
2018-12-09T21:09:58.684Z,12.67
2018-12-09T21:12:26.605Z,22.77
2018-12-09T21:14:54.509Z,17.63
2018-12-09T21:17:23.780Z,13.87
2018-12-09T21:19:51.484Z,17.87
2018-12-09T21:22:19.276Z,16.17
2018-12-09T21:24:47.146Z,14.67
2018-12-09T21:27:14.776Z,20.30
2018-12-09T21:29:42.411Z,19.43
2018-12-09T21:32:10.086Z,18.27
2018-12-09T21:34:38.140Z,19.73
2018-12-09T21:37:05.897Z,16.87
2018-12-09T21:39:34.337Z,20.17
2018-12-09T21:42:03.043Z,13.87
2018-12-09T21:44:31.613Z,20.13
2018-12-09T21:46:59.337Z,17.77
2018-12-09T21:49:26.966Z,29.87
2018-12-09T21:51:55.311Z,22.27
2018-12-09T21:54:23.606Z,16.97
2018-12-09T21:56:51.889Z,22.17
2018-12-09T21:59:19.690Z,13.37
2018-12-09T22:01:51.390Z,18.50
2018-12-09T22:04:19.103Z,12.47
2018-12-09T22:06:46.735Z,14.50
2018-12-09T22:09:14.459Z,14.90
2018-12-09T22:11:43.144Z,15.97
2018-12-09T22:14:11.706Z,13.60
2018-12-09T22:16:39.391Z,11.70
2018-12-09T22:19:08.142Z,12.00
2018-12-09T22:21:36.275Z,17.40
2018-12-09T22:24:04.758Z,11.73
2018-12-09T22:26:33.258Z,9.23
2018-12-09T22:29:01.987Z,12.55
2018-12-09T22:31:29.894Z,13.17
2018-12-09T22:33:57.749Z,8.97
2018-12-09T22:36:25.571Z,14.43
2018-12-09T22:38:53.325Z,16.67
2018-12-09T22:41:21.157Z,12.63
2018-12-09T22:43:49.707Z,17.33
2018-12-09T22:46:17.348Z,14.10
2018-12-09T22:48:45.153Z,11.23
2018-12-09T22:51:12.695Z,10.87
2018-12-09T22:53:40.321Z,7.77
2018-12-09T22:56:07.928Z,12.20
2018-12-09T22:58:36.155Z,10.90
2018-12-09T23:01:08.893Z,12.03
2018-12-09T23:03:36.575Z,13.70
2018-12-09T23:06:06.335Z,14.90
2018-12-09T23:08:33.923Z,15.30
2018-12-09T23:11:01.425Z,17.37
2018-12-09T23:13:29.013Z,15.87
2018-12-09T23:15:56.538Z,16.10
2018-12-09T23:18:24.255Z,10.03
2018-12-09T23:20:51.921Z,6.13
2018-12-09T23:23:19.726Z,11.43
2018-12-09T23:25:52.452Z,12.27
2018-12-09T23:28:21.178Z,13.03
2018-12-09T23:30:50.473Z,14.27
2018-12-09T23:33:18.367Z,7.37
2018-12-09T23:35:47.319Z,11.47
2018-12-09T23:38:15.092Z,11.10
2018-12-09T23:40:43.538Z,14.43
2018-12-09T23:43:11.168Z,12.40
2018-12-09T23:45:43.058Z,7.93
2018-12-09T23:48:10.615Z,11.70
2018-12-09T23:50:38.150Z,5.77
2018-12-09T23:53:05.602Z,4.73
2018-12-09T23:55:33.334Z,7.73
2018-12-09T23:58:00.877Z,11.30
